createdAt,value
2023-10-02T00:01:11.434Z,19.48
2023-10-02T00:03:41.664Z,18.80
2023-10-02T00:06:11.085Z,19.50
2023-10-02T00:08:50.344Z,17.15
2023-10-02T00:11:37.822Z,18.35
2023-10-02T00:14:21.840Z,19.10
2023-10-02T00:17:06.262Z,19.48
2023-10-02T00:19:37.346Z,18.40
2023-10-02T00:22:07.098Z,16.50
2023-10-02T00:24:38.988Z,21.90
2023-10-02T00:27:10.783Z,18.52
2023-10-02T00:29:52.610Z,19.45
2023-10-02T00:32:23.581Z,22.25
2023-10-02T00:34:53.889Z,18.75
2023-10-02T00:37:21.453Z,19.98
2023-10-02T00:39:54.048Z,16.65
2023-10-02T00:42:21.069Z,21.48
2023-10-02T00:45:02.782Z,21.23
2023-10-02T00:47:40.371Z,19.23
2023-10-02T00:50:12.418Z,20.75
2023-10-02T00:52:43.581Z,21.57
2023-10-02T00:55:16.588Z,28.77
2023-10-02T00:57:46.834Z,19.83
2023-10-02T01:00:32.009Z,22.58
2023-10-02T01:03:05.152Z,23.67
2023-10-02T01:05:44.158Z,21.90
2023-10-02T01:08:25.174Z,20.58
2023-10-02T01:10:57.922Z,23.08
2023-10-02T01:13:34.142Z,20.60
2023-10-02T01:16:08.632Z,19.67
2023-10-02T01:18:38.206Z,22.75
2023-10-02T01:21:13.760Z,23.85
2023-10-02T01:24:10.004Z,23.35
2023-10-02T01:26:39.154Z,28.48
2023-10-02T01:29:07.776Z,23.48
2023-10-02T01:31:45.492Z,25.13
2023-10-02T01:34:32.699Z,23.48
2023-10-02T01:37:29.274Z,23.05
2023-10-02T01:40:16.184Z,23.27
2023-10-02T01:42:45.319Z,23.13
2023-10-02T01:45:12.460Z,25.95
2023-10-02T01:47:42.618Z,22.77
2023-10-02T01:50:10.895Z,24.33
2023-10-02T01:52:51.326Z,29.33
2023-10-02T01:55:30.454Z,25.30
2023-10-02T01:58:18.136Z,23.13
2023-10-02T02:00:48.828Z,21.85
2023-10-02T02:03:16.036Z,23.52
2023-10-02T02:05:45.501Z,23.40
2023-10-02T02:08:24.520Z,25.75
2023-10-02T02:11:16.338Z,23.33
2023-10-02T02:14:05.311Z,25.42
2023-10-02T02:16:35.494Z,24.42
2023-10-02T02:19:09.383Z,25.33
2023-10-02T02:21:36.961Z,22.52
2023-10-02T02:24:04.799Z,28.20
2023-10-02T02:26:32.751Z,23.33
2023-10-02T02:29:02.795Z,23.42
2023-10-02T02:31:31.204Z,23.02
2023-10-02T02:34:01.699Z,24.58
2023-10-02T02:36:35.596Z,26.63
2023-10-02T02:39:17.230Z,21.92
2023-10-02T02:41:49.459Z,22.23
2023-10-02T02:44:36.253Z,22.67
2023-10-02T02:47:08.674Z,24.58
2023-10-02T02:49:49.680Z,24.77
2023-10-02T02:52:27.471Z,24.17
2023-10-02T02:57:35.052Z,24.52
2023-10-02T03:00:30.453Z,27.23
2023-10-02T03:03:01.428Z,22.63
2023-10-02T03:05:42.442Z,19.30
2023-10-02T03:08:15.363Z,23.55
2023-10-02T03:13:18.034Z,20.73
2023-10-02T03:15:48.705Z,26.48
2023-10-02T03:18:37.404Z,22.33
2023-10-02T03:21:08.585Z,23.08
2023-10-02T03:23:35.594Z,27.35
2023-10-02T03:26:09.175Z,23.35
2023-10-02T03:28:36.410Z,23.42
2023-10-02T03:31:03.726Z,24.45
2023-10-02T03:33:33.449Z,24.38
2023-10-02T03:36:10.972Z,25.58
2023-10-02T03:38:50.454Z,21.77
2023-10-02T03:41:18.030Z,25.75
2023-10-02T03:43:45.385Z,24.85
2023-10-02T03:46:34.813Z,27.52
2023-10-02T03:49:05.330Z,23.70
2023-10-02T03:51:41.898Z,25.20
2023-10-02T03:54:19.162Z,23.90
2023-10-02T03:56:49.206Z,24.75
2023-10-02T03:59:26.918Z,24.33
2023-10-02T04:02:17.633Z,24.58
2023-10-02T04:04:44.990Z,25.50
2023-10-02T04:07:12.472Z,24.50
2023-10-02T04:09:39.910Z,21.75
2023-10-02T04:12:08.483Z,25.52
2023-10-02T04:14:40.073Z,20.75
2023-10-02T04:17:22.198Z,23.20
2023-10-02T04:19:50.488Z,29.10
2023-10-02T04:22:21.509Z,23.20
2023-10-02T04:25:07.862Z,20.92
2023-10-02T04:28:02.290Z,24.08
2023-10-02T04:30:29.211Z,23.75
2023-10-02T04:33:01.093Z,23.45
2023-10-02T04:35:46.407Z,23.50
2023-10-02T04:38:36.517Z,22.60
2023-10-02T04:41:11.020Z,23.33
2023-10-02T04:43:38.397Z,23.27
2023-10-02T04:46:14.567Z,23.30
2023-10-02T04:48:43.498Z,23.77
2023-10-02T04:51:17.231Z,23.17
2023-10-02T04:53:47.285Z,24.52
2023-10-02T04:56:20.350Z,25.50
2023-10-02T04:58:58.534Z,23.90
2023-10-02T05:01:43.359Z,25.55
2023-10-02T05:04:17.816Z,22.90
2023-10-02T05:06:54.309Z,25.30
2023-10-02T05:09:22.544Z,24.10
2023-10-02T05:12:05.254Z,24.33
2023-10-02T05:17:19.531Z,25.60
2023-10-02T05:20:08.786Z,24.88
2023-10-02T05:22:38.147Z,29.77
2023-10-02T05:25:09.646Z,26.13
2023-10-02T05:27:41.706Z,23.63
2023-10-02T05:30:15.248Z,21.70
2023-10-02T05:32:42.976Z,23.50
2023-10-02T05:35:13.344Z,26.45
2023-10-02T05:37:52.941Z,24.30
2023-10-02T05:40:20.987Z,24.65
2023-10-02T05:43:11.109Z,22.35
2023-10-02T05:45:41.787Z,23.85
2023-10-02T05:48:27.885Z,20.98
2023-10-02T05:50:57.844Z,23.35
2023-10-02T05:53:27.656Z,25.48
2023-10-02T05:56:08.442Z,24.00
2023-10-02T05:58:37.313Z,23.40
2023-10-02T06:01:33.303Z,24.30
2023-10-02T06:04:02.021Z,22.70
2023-10-02T06:06:37.394Z,21.20
2023-10-02T06:09:14.648Z,26.67
2023-10-02T06:12:01.297Z,17.80
2023-10-02T06:14:28.689Z,25.88
2023-10-02T06:16:56.168Z,21.45
2023-10-02T06:19:23.441Z,20.67
2023-10-02T06:22:06.239Z,23.05
2023-10-02T06:27:05.801Z,25.02
2023-10-02T06:29:36.675Z,24.77
2023-10-02T06:32:12.704Z,20.65
2023-10-02T06:34:44.600Z,25.92
2023-10-02T06:37:20.652Z,27.55
2023-10-02T06:40:14.167Z,25.65
2023-10-02T06:42:52.429Z,25.80
2023-10-02T06:45:22.168Z,24.15
2023-10-02T06:47:50.354Z,21.00
2023-10-02T06:50:29.026Z,24.20
2023-10-02T06:52:59.068Z,19.17
2023-10-02T06:55:28.044Z,24.23
2023-10-02T06:57:55.575Z,20.30
2023-10-02T07:00:24.432Z,22.67
2023-10-02T07:03:00.402Z,23.20
2023-10-02T07:05:33.719Z,25.75
2023-10-02T07:08:19.047Z,23.83
2023-10-02T07:10:47.155Z,22.60
2023-10-02T07:13:26.005Z,20.60
2023-10-02T07:15:57.262Z,22.73
2023-10-02T07:18:38.590Z,21.85
2023-10-02T07:21:09.373Z,22.45
2023-10-02T07:23:40.287Z,22.70
2023-10-02T07:26:21.216Z,20.27
2023-10-02T07:28:52.305Z,23.13
2023-10-02T07:31:21.194Z,21.02
2023-10-02T07:33:48.173Z,26.90
2023-10-02T07:36:16.532Z,23.80
2023-10-02T07:38:46.740Z,20.45
2023-10-02T07:41:28.304Z,21.50
2023-10-02T07:44:09.034Z,25.45
2023-10-02T07:46:37.773Z,22.60
2023-10-02T07:49:06.125Z,22.98
2023-10-02T07:51:39.210Z,21.08
2023-10-02T07:56:37.061Z,22.40
2023-10-02T07:59:04.924Z,24.42
2023-10-02T08:01:35.391Z,24.17
2023-10-02T08:04:03.738Z,22.27
2023-10-02T08:06:48.206Z,23.98
2023-10-02T08:09:39.647Z,19.38
2023-10-02T08:12:09.945Z,22.10
2023-10-02T08:14:41.676Z,22.20
2023-10-02T08:17:19.503Z,25.13
2023-10-02T08:20:01.048Z,24.45
2023-10-02T08:22:45.412Z,25.67
2023-10-02T08:25:17.569Z,23.73
2023-10-02T08:27:46.168Z,21.13
2023-10-02T08:30:33.720Z,21.75
2023-10-02T08:33:15.776Z,21.08
2023-10-02T08:36:11.144Z,22.30
2023-10-02T08:38:41.604Z,21.55
2023-10-02T08:41:09.544Z,24.42
2023-10-02T08:43:43.130Z,25.60
2023-10-02T08:46:29.231Z,25.33
2023-10-02T08:48:56.597Z,21.88
2023-10-02T08:51:30.346Z,26.75
2023-10-02T08:53:59.146Z,22.60
2023-10-02T08:56:38.788Z,20.13
2023-10-02T08:59:19.807Z,25.13
2023-10-02T09:01:49.050Z,23.48
2023-10-02T09:04:24.549Z,25.00
2023-10-02T09:06:59.261Z,22.08
2023-10-02T09:09:35.714Z,24.02
2023-10-02T09:12:04.713Z,27.05
2023-10-02T09:14:33.475Z,23.83
2023-10-02T09:17:13.736Z,24.63
2023-10-02T09:19:42.783Z,21.10
2023-10-02T09:22:17.963Z,22.63
2023-10-02T09:24:59.769Z,20.13
2023-10-02T09:27:38.395Z,23.00
2023-10-02T09:30:17.151Z,22.67
2023-10-02T09:32:48.734Z,22.15
2023-10-02T09:36:01.608Z,27.70
2023-10-02T09:38:25.469Z,24.58
2023-10-02T09:40:56.074Z,27.27
2023-10-02T09:43:34.535Z,22.27
2023-10-02T09:46:22.654Z,23.90
2023-10-02T09:49:05.707Z,22.73
2023-10-02T09:54:42.410Z,21.15
2023-10-02T09:57:18.188Z,22.52
2023-10-02T09:59:48.649Z,24.27
2023-10-02T10:02:40.650Z,25.25
2023-10-02T10:05:14.691Z,24.55
2023-10-02T10:07:48.305Z,24.90
2023-10-02T10:10:47.672Z,22.52
2023-10-02T10:13:33.865Z,20.63
2023-10-02T10:16:24.481Z,21.13
2023-10-02T10:19:06.408Z,21.50
2023-10-02T10:21:58.605Z,25.85
2023-10-02T10:24:35.329Z,23.10
2023-10-02T10:27:03.021Z,23.45
2023-10-02T10:29:42.968Z,26.48
2023-10-02T10:32:25.155Z,21.15
2023-10-02T10:35:16.252Z,22.67
2023-10-02T10:37:48.294Z,26.67
2023-10-02T10:40:45.251Z,23.90
2023-10-02T10:43:15.463Z,22.15
2023-10-02T10:45:45.484Z,23.00
2023-10-02T10:48:25.086Z,23.30
2023-10-02T10:51:04.640Z,22.70
2023-10-02T10:53:33.885Z,19.33
2023-10-02T10:56:05.020Z,19.75
2023-10-02T10:58:34.540Z,25.92
2023-10-02T11:01:08.460Z,24.85
2023-10-02T11:03:39.760Z,22.20
2023-10-02T11:06:10.863Z,25.17
2023-10-02T11:08:39.706Z,24.75
2023-10-02T11:11:21.056Z,21.13
2023-10-02T11:13:57.066Z,19.60
2023-10-02T11:16:33.685Z,22.25
2023-10-02T11:19:15.033Z,20.88
2023-10-02T11:22:18.188Z,18.73
2023-10-02T11:24:46.766Z,19.15
2023-10-02T11:27:17.643Z,23.98
2023-10-02T11:30:06.297Z,20.65
2023-10-02T11:32:56.219Z,22.90
2023-10-02T11:35:30.140Z,19.63
2023-10-02T11:37:58.705Z,24.55
2023-10-02T11:40:26.581Z,18.73
2023-10-02T11:42:54.114Z,19.48
2023-10-02T11:45:21.561Z,26.38
2023-10-02T11:47:50.209Z,20.73
2023-10-02T11:50:17.809Z,20.88
2023-10-02T11:52:45.486Z,19.05
2023-10-02T11:55:12.801Z,25.15
2023-10-02T11:57:39.793Z,20.88
2023-10-02T12:00:10.420Z,21.73
2023-10-02T12:02:41.020Z,18.52
2023-10-02T12:05:09.186Z,21.17
2023-10-02T12:07:36.446Z,19.83
2023-10-02T12:10:03.606Z,20.17
2023-10-02T12:12:31.659Z,22.45
2023-10-02T12:14:58.858Z,26.60
2023-10-02T12:17:25.887Z,25.85
2023-10-02T12:19:53.200Z,22.02
2023-10-02T12:22:20.512Z,23.13
2023-10-02T12:24:47.907Z,20.52
2023-10-02T12:27:17.905Z,22.40
2023-10-02T12:29:45.825Z,20.83
2023-10-02T12:32:12.796Z,23.35
2023-10-02T12:34:40.269Z,21.38
2023-10-02T12:37:07.490Z,22.55
2023-10-02T12:39:34.437Z,20.83
2023-10-02T12:42:01.413Z,20.40
2023-10-02T12:44:31.953Z,17.48
2023-10-02T12:46:59.552Z,19.20
2023-10-02T12:49:26.613Z,19.90
2023-10-02T12:51:54.118Z,20.25
2023-10-02T12:54:21.571Z,21.80
2023-10-02T12:56:48.999Z,19.90
2023-10-02T12:59:16.616Z,20.67
2023-10-02T13:01:45.366Z,21.25
2023-10-02T13:04:15.595Z,22.70
2023-10-02T13:06:45.870Z,23.83
2023-10-02T13:09:16.224Z,26.73
2023-10-02T13:11:46.280Z,23.67
2023-10-02T13:14:20.193Z,22.45
2023-10-02T13:16:49.674Z,22.42
2023-10-02T13:19:17.863Z,23.23
2023-10-02T13:21:46.426Z,23.75
2023-10-02T13:24:17.064Z,18.92
2023-10-02T13:26:47.562Z,21.10
2023-10-02T13:29:15.141Z,20.40
2023-10-02T13:31:42.651Z,27.65
2023-10-02T13:34:09.756Z,18.25
2023-10-02T13:36:38.529Z,20.42
2023-10-02T13:39:06.276Z,18.70
2023-10-02T13:41:36.123Z,21.02
2023-10-02T13:44:05.538Z,17.90
2023-10-02T13:46:39.846Z,17.08
2023-10-02T13:49:07.403Z,24.80
2023-10-02T13:51:35.517Z,23.63
2023-10-02T13:54:03.602Z,27.20
2023-10-02T13:56:34.685Z,22.40
2023-10-02T13:59:03.292Z,19.35
2023-10-02T14:01:34.519Z,21.25
2023-10-02T14:04:02.838Z,24.27
2023-10-02T14:06:30.636Z,19.70
2023-10-02T14:08:58.867Z,20.70
2023-10-02T14:15:18.404Z,20.08
2023-10-02T14:18:03.894Z,18.27
2023-10-02T14:20:31.387Z,20.33
2023-10-02T14:22:58.614Z,21.65
2023-10-02T14:25:25.792Z,24.73
2023-10-02T14:27:53.523Z,17.70
2023-10-02T14:30:21.200Z,19.95
2023-10-02T14:32:50.864Z,18.23
2023-10-02T14:35:19.425Z,21.25
2023-10-02T14:37:49.753Z,22.38
2023-10-02T14:40:21.138Z,19.77
2023-10-02T14:42:49.397Z,19.23
2023-10-02T14:45:28.083Z,21.98
2023-10-02T14:47:59.546Z,20.92
2023-10-02T14:50:27.148Z,19.80
2023-10-02T14:52:56.816Z,19.63
2023-10-02T14:55:26.450Z,18.90
2023-10-02T14:57:54.081Z,18.67
2023-10-02T15:00:22.697Z,21.15
2023-10-02T15:02:53.889Z,18.83
2023-10-02T15:05:21.730Z,14.30
2023-10-02T15:07:50.909Z,18.08
2023-10-02T15:10:20.208Z,18.67
2023-10-02T15:12:49.027Z,20.30
2023-10-02T15:15:16.106Z,15.45
2023-10-02T15:17:44.609Z,17.38
2023-10-02T15:20:14.284Z,18.95
2023-10-02T15:22:44.146Z,17.60
2023-10-02T15:25:15.113Z,18.90
2023-10-02T15:27:53.010Z,15.23
2023-10-02T15:30:22.602Z,20.67
2023-10-02T15:32:55.293Z,19.52
2023-10-02T15:35:23.743Z,15.88
2023-10-02T15:37:55.667Z,23.65
2023-10-02T15:40:24.410Z,17.75
2023-10-02T15:42:54.078Z,19.02
2023-10-02T15:45:24.326Z,20.83
2023-10-02T15:47:56.548Z,14.48
2023-10-02T15:50:28.276Z,17.52
2023-10-02T15:52:56.647Z,19.17
2023-10-02T15:55:25.191Z,19.00
2023-10-02T15:57:53.683Z,18.08
2023-10-02T16:00:23.457Z,17.77
2023-10-02T16:02:56.022Z,18.88
2023-10-02T16:05:25.843Z,16.88
2023-10-02T16:07:53.414Z,19.02
2023-10-02T16:10:22.272Z,17.50
2023-10-02T16:12:51.584Z,16.63
2023-10-02T16:15:24.617Z,18.05
2023-10-02T16:17:54.838Z,16.50
2023-10-02T16:20:23.831Z,20.10
2023-10-02T16:22:52.568Z,18.48
2023-10-02T16:25:20.957Z,16.17
2023-10-02T16:27:51.321Z,17.80
2023-10-02T16:30:20.858Z,19.40
2023-10-02T16:32:49.529Z,16.95
2023-10-02T16:35:18.064Z,16.05
2023-10-02T16:37:45.542Z,16.60
2023-10-02T16:40:15.169Z,17.55
2023-10-02T16:42:42.789Z,16.67
2023-10-02T16:45:12.576Z,17.63
2023-10-02T16:47:40.035Z,18.08
2023-10-02T16:50:14.787Z,17.55
2023-10-02T16:52:48.427Z,21.02
2023-10-02T16:55:22.929Z,20.15
2023-10-02T16:57:51.994Z,19.23
2023-10-02T17:00:21.732Z,20.15
2023-10-02T17:02:50.355Z,18.33
2023-10-02T17:05:22.068Z,21.10
2023-10-02T17:07:51.504Z,20.20
2023-10-02T17:10:22.327Z,22.08
2023-10-02T17:12:51.786Z,17.38
2023-10-02T17:15:20.053Z,18.95
2023-10-02T17:17:49.622Z,21.13
2023-10-02T17:20:18.786Z,19.33
2023-10-02T17:22:50.560Z,19.27
2023-10-02T17:25:25.637Z,18.63
2023-10-02T17:27:59.647Z,23.30
2023-10-02T17:30:27.024Z,18.98
2023-10-02T17:32:54.597Z,24.67
2023-10-02T17:35:22.107Z,21.02
2023-10-02T17:37:49.711Z,21.88
2023-10-02T17:40:16.956Z,20.00
2023-10-02T17:42:44.903Z,18.27
2023-10-02T17:45:13.123Z,22.42
2023-10-02T17:47:43.440Z,22.27
2023-10-02T17:50:12.904Z,24.75
2023-10-02T17:52:43.307Z,27.98
2023-10-02T17:55:11.265Z,32.30
2023-10-02T17:57:38.737Z,31.35
2023-10-02T18:00:06.430Z,25.10
2023-10-02T18:02:41.339Z,20.63
2023-10-02T18:05:12.329Z,19.88
2023-10-02T18:07:40.071Z,19.10
2023-10-02T18:10:07.500Z,20.33
2023-10-02T18:12:36.236Z,19.77
2023-10-02T18:15:14.172Z,20.40
2023-10-02T18:17:42.187Z,19.40
2023-10-02T18:20:12.479Z,17.50
2023-10-02T18:22:44.951Z,20.00
2023-10-02T18:25:13.012Z,19.67
2023-10-02T18:27:40.705Z,21.30
2023-10-02T18:30:10.351Z,18.42
2023-10-02T18:32:40.511Z,21.08
2023-10-02T18:35:09.220Z,19.77
2023-10-02T18:37:36.187Z,21.27
2023-10-02T18:40:09.359Z,19.58
2023-10-02T18:42:38.116Z,20.60
2023-10-02T18:45:07.002Z,22.63
2023-10-02T18:47:34.963Z,17.40
2023-10-02T18:50:05.333Z,21.77
2023-10-02T18:52:35.768Z,18.42
2023-10-02T18:55:03.295Z,19.70
2023-10-02T18:57:30.296Z,21.00
2023-10-02T18:59:57.677Z,20.55
2023-10-02T19:02:30.314Z,18.70
2023-10-02T19:04:57.681Z,19.20
2023-10-02T19:07:25.820Z,19.05
2023-10-02T19:09:52.901Z,22.02
2023-10-02T19:12:20.207Z,19.33
2023-10-02T19:14:47.474Z,20.05
2023-10-02T19:17:14.662Z,19.90
2023-10-02T19:19:42.533Z,21.10
2023-10-02T19:22:09.750Z,21.20
2023-10-02T19:24:36.834Z,22.10
2023-10-02T19:27:03.872Z,19.33
2023-10-02T19:29:32.779Z,21.92
2023-10-02T19:32:00.471Z,24.13
2023-10-02T19:34:27.721Z,20.08
2023-10-02T19:36:55.099Z,20.38
2023-10-02T19:39:22.435Z,21.58
2023-10-02T19:41:50.032Z,20.15
2023-10-02T19:44:17.197Z,20.95
2023-10-02T19:46:44.296Z,24.15
2023-10-02T19:49:11.682Z,24.70
2023-10-02T19:51:39.735Z,24.30
2023-10-02T19:54:06.887Z,27.00
2023-10-02T19:56:34.546Z,28.05
2023-10-02T19:59:02.455Z,27.58
2023-10-02T20:01:30.069Z,23.98
2023-10-02T20:03:57.174Z,26.75
2023-10-02T20:06:24.773Z,30.25
2023-10-02T20:08:52.114Z,27.85
2023-10-02T20:11:22.360Z,26.33
2023-10-02T20:13:50.881Z,28.17
2023-10-02T20:16:18.581Z,23.35
2023-10-02T20:18:45.702Z,22.83
2023-10-02T20:21:20.371Z,26.98
2023-10-02T20:23:53.592Z,28.65
2023-10-02T20:26:22.100Z,26.50
2023-10-02T20:28:49.408Z,28.27
2023-10-02T20:31:16.537Z,27.30
2023-10-02T20:33:43.954Z,25.38
2023-10-02T20:36:13.228Z,22.67
2023-10-02T20:38:41.204Z,28.20
2023-10-02T20:41:08.569Z,26.30
2023-10-02T20:43:35.988Z,27.10
2023-10-02T20:46:25.439Z,25.27
2023-10-02T20:48:52.645Z,24.75
2023-10-02T20:51:19.652Z,25.00
2023-10-02T20:53:46.786Z,23.98
2023-10-02T20:56:15.826Z,27.50
2023-10-02T20:58:42.835Z,25.95
2023-10-02T21:01:10.252Z,25.48
2023-10-02T21:03:37.388Z,24.50
2023-10-02T21:06:05.101Z,23.45
2023-10-02T21:08:32.757Z,26.80
2023-10-02T21:10:59.796Z,23.48
2023-10-02T21:13:26.803Z,22.38
2023-10-02T21:15:53.814Z,24.27
2023-10-02T21:18:24.437Z,25.05
2023-10-02T21:20:52.910Z,21.80
2023-10-02T21:23:21.406Z,22.88
2023-10-02T21:25:48.860Z,23.38
2023-10-02T21:28:16.749Z,24.40
2023-10-02T21:30:47.980Z,22.88
2023-10-02T21:33:15.365Z,18.77
2023-10-02T21:35:42.655Z,19.65
2023-10-02T21:38:12.149Z,20.60
2023-10-02T21:40:39.217Z,18.27
2023-10-02T21:43:06.317Z,21.88
2023-10-02T21:45:33.320Z,22.77
2023-10-02T21:48:00.548Z,22.23
2023-10-02T21:50:28.919Z,20.10
2023-10-02T21:52:56.086Z,24.58
2023-10-02T21:55:25.030Z,23.80
2023-10-02T21:57:52.066Z,19.75
2023-10-02T22:00:47.301Z,25.75
2023-10-02T22:03:15.775Z,26.25
2023-10-02T22:05:44.159Z,23.33
2023-10-02T22:08:14.818Z,25.30
2023-10-02T22:10:45.287Z,25.45
2023-10-02T22:13:14.202Z,27.45
2023-10-02T22:15:41.511Z,26.33
2023-10-02T22:18:11.196Z,25.48
2023-10-02T22:20:46.696Z,27.80
2023-10-02T22:23:18.443Z,29.38
2023-10-02T22:25:46.708Z,25.05
2023-10-02T22:28:14.047Z,31.45
2023-10-02T22:30:42.416Z,28.48
2023-10-02T22:33:09.513Z,31.77
2023-10-02T22:35:37.717Z,32.70
2023-10-02T22:38:09.606Z,28.10
2023-10-02T22:40:36.765Z,31.43
2023-10-02T22:43:04.120Z,29.73
2023-10-02T22:45:34.112Z,28.40
2023-10-02T22:48:01.110Z,33.35
2023-10-02T22:50:28.301Z,30.33
2023-10-02T22:52:55.404Z,26.52
2023-10-02T22:55:23.950Z,29.70
2023-10-02T22:57:52.666Z,31.30
2023-10-02T23:00:21.858Z,23.38
2023-10-02T23:02:53.295Z,33.78
2023-10-02T23:05:21.547Z,29.48
2023-10-02T23:07:48.892Z,26.38
2023-10-02T23:10:17.393Z,28.27
2023-10-02T23:12:50.296Z,28.35
2023-10-02T23:15:20.629Z,28.50
2023-10-02T23:17:49.078Z,30.08
2023-10-02T23:20:16.500Z,25.25
2023-10-02T23:22:49.025Z,27.30
2023-10-02T23:25:22.532Z,26.90
2023-10-02T23:27:52.652Z,26.40
2023-10-02T23:30:24.032Z,24.50
2023-10-02T23:32:55.567Z,25.77
2023-10-02T23:35:25.324Z,30.23
2023-10-02T23:37:53.445Z,24.75
2023-10-02T23:40:21.587Z,28.27
2023-10-02T23:43:00.395Z,23.15
2023-10-02T23:45:37.665Z,23.17
2023-10-02T23:48:14.214Z,23.58
2023-10-02T23:50:48.201Z,27.17
2023-10-02T23:53:16.846Z,24.67
2023-10-02T23:55:45.479Z,27.80
2023-10-02T23:58:12.945Z,31.20
